createdAt,value
2023-04-09T00:02:10.424Z,27.70
2023-04-09T00:07:12.519Z,24.30
2023-04-09T00:12:14.392Z,30.00
2023-04-09T00:17:17.102Z,28.20
2023-04-09T00:22:19.096Z,27.10
2023-04-09T00:27:21.281Z,27.20
2023-04-09T00:32:23.147Z,26.70
2023-04-09T00:37:25.592Z,26.60
2023-04-09T00:42:27.604Z,25.60
2023-04-09T00:47:31.351Z,26.70
2023-04-09T00:52:34.012Z,26.50
2023-04-09T00:57:36.524Z,27.60
2023-04-09T01:02:39.167Z,30.00
2023-04-09T01:08:10.839Z,31.90
2023-04-09T01:13:23.776Z,32.30
2023-04-09T01:18:32.640Z,29.60
2023-04-09T01:24:02.779Z,30.00
2023-04-09T01:29:18.650Z,31.00
2023-04-09T01:34:20.842Z,32.80
2023-04-09T01:39:23.513Z,31.20
2023-04-09T01:44:27.638Z,29.70
2023-04-09T01:49:31.127Z,33.00
2023-04-09T01:54:33.342Z,32.10
2023-04-09T01:59:35.581Z,33.70
2023-04-09T02:04:43.627Z,34.10
2023-04-09T02:09:48.058Z,35.30
2023-04-09T02:14:53.097Z,33.60
2023-04-09T02:19:55.441Z,35.50
2023-04-09T02:24:57.571Z,33.70
2023-04-09T02:29:59.597Z,35.10
2023-04-09T02:35:01.659Z,35.60
2023-04-09T02:40:04.559Z,34.70
2023-04-09T02:45:07.531Z,34.50
2023-04-09T02:50:09.783Z,34.20
2023-04-09T02:55:15.458Z,36.90
2023-04-09T03:00:17.714Z,35.70
2023-04-09T03:05:19.593Z,37.40
2023-04-09T03:10:21.702Z,36.60
2023-04-09T03:15:23.602Z,37.80
2023-04-09T03:20:26.020Z,36.30
2023-04-09T03:25:28.502Z,36.70
2023-04-09T03:30:31.557Z,37.20
2023-04-09T03:35:34.992Z,36.10
2023-04-09T03:40:38.868Z,39.80
2023-04-09T03:45:40.745Z,38.10
2023-04-09T03:50:54.400Z,38.20
2023-04-09T03:56:03.611Z,39.70
2023-04-09T04:01:06.979Z,36.70
2023-04-09T04:06:18.407Z,36.30
2023-04-09T04:11:46.713Z,37.00
2023-04-09T04:16:49.132Z,36.50
2023-04-09T04:21:53.591Z,35.60
2023-04-09T04:26:56.834Z,35.40
2023-04-09T04:32:01.055Z,37.60
2023-04-09T04:37:07.619Z,37.60
2023-04-09T04:42:09.714Z,34.90
2023-04-09T04:47:12.286Z,35.00
2023-04-09T04:52:16.623Z,34.60
2023-04-09T04:57:21.329Z,32.80
2023-04-09T05:02:23.748Z,34.20
2023-04-09T05:07:48.663Z,35.60
2023-04-09T05:12:50.964Z,32.00
2023-04-09T05:18:00.918Z,32.50
2023-04-09T05:23:04.309Z,33.10
2023-04-09T05:28:12.529Z,34.00
2023-04-09T05:33:16.106Z,32.80
2023-04-09T05:38:18.495Z,33.00
2023-04-09T05:43:22.415Z,32.70
2023-04-09T05:48:24.482Z,33.60
2023-04-09T05:53:30.026Z,34.40
2023-04-09T05:58:32.508Z,33.20
2023-04-09T06:03:34.913Z,34.30
2023-04-09T06:08:37.225Z,34.10
2023-04-09T06:13:40.293Z,34.60
2023-04-09T06:18:42.905Z,38.10
2023-04-09T06:23:44.963Z,39.60
2023-04-09T06:28:48.053Z,38.70
2023-04-09T06:33:50.891Z,39.60
2023-04-09T06:38:53.785Z,39.20
2023-04-09T06:43:55.952Z,38.20
2023-04-09T06:48:58.615Z,37.20
2023-04-09T06:54:03.241Z,40.00
2023-04-09T06:59:07.242Z,35.90
2023-04-09T07:04:09.976Z,35.70
2023-04-09T07:09:12.021Z,35.90
2023-04-09T07:14:14.255Z,33.90
2023-04-09T07:19:16.552Z,36.80
2023-04-09T07:24:19.028Z,34.30
2023-04-09T07:29:22.561Z,35.40
2023-04-09T07:34:26.683Z,34.80
2023-04-09T07:39:29.256Z,36.80
2023-04-09T07:44:36.732Z,35.00
2023-04-09T07:49:39.482Z,35.40
2023-04-09T07:54:42.395Z,33.00
2023-04-09T07:59:45.010Z,34.20
2023-04-09T08:04:47.539Z,33.50
2023-04-09T08:09:49.556Z,33.00
2023-04-09T08:14:52.169Z,34.70
2023-04-09T08:19:54.100Z,32.20
2023-04-09T08:24:59.449Z,32.20
2023-04-09T08:30:07.056Z,32.70
2023-04-09T08:35:11.247Z,31.40
2023-04-09T08:40:13.370Z,32.30
2023-04-09T08:45:17.370Z,35.70
2023-04-09T08:50:20.637Z,36.80
2023-04-09T08:55:23.627Z,36.80
2023-04-09T09:00:26.405Z,37.30
2023-04-09T09:05:47.319Z,37.30
2023-04-09T09:10:50.423Z,38.20
2023-04-09T09:15:56.574Z,37.60
2023-04-09T09:21:12.728Z,38.80
2023-04-09T09:26:17.008Z,39.50
2023-04-09T09:31:21.972Z,39.30
2023-04-09T09:36:35.660Z,38.40
2023-04-09T09:41:39.629Z,38.60
2023-04-09T09:46:47.195Z,37.30
2023-04-09T09:51:56.974Z,38.40
2023-04-09T09:57:04.885Z,39.50
2023-04-09T10:02:22.348Z,39.70
2023-04-09T10:07:25.716Z,39.00
2023-04-09T10:12:32.241Z,38.90
2023-04-09T10:17:34.393Z,39.30
2023-04-09T10:22:36.753Z,39.80
2023-04-09T10:27:39.988Z,38.60
2023-04-09T10:32:44.142Z,37.90
2023-04-09T10:37:51.023Z,39.70
2023-04-09T10:42:57.125Z,38.60
2023-04-09T10:48:03.247Z,39.50
2023-04-09T10:53:06.538Z,37.60
2023-04-09T10:58:13.674Z,38.20
2023-04-09T11:03:32.653Z,38.70
2023-04-09T11:08:39.247Z,69.10
2023-04-09T11:13:42.101Z,37.40
2023-04-09T11:18:45.100Z,38.80
2023-04-09T11:23:53.729Z,37.40
2023-04-09T11:28:58.222Z,39.80
2023-04-09T11:34:00.879Z,38.80
2023-04-09T11:39:04.371Z,38.40
2023-04-09T11:44:08.146Z,37.30
2023-04-09T11:49:10.630Z,34.20
2023-04-09T11:54:12.591Z,36.80
2023-04-09T11:59:15.786Z,36.10
2023-04-09T12:04:21.661Z,37.00
2023-04-09T12:09:24.379Z,35.30
2023-04-09T12:14:29.566Z,34.90
2023-04-09T12:19:31.918Z,33.70
2023-04-09T12:24:33.956Z,35.90
2023-04-09T12:29:36.156Z,32.90
2023-04-09T12:34:38.679Z,31.20
2023-04-09T12:39:41.244Z,31.00
2023-04-09T12:44:43.017Z,30.60
2023-04-09T12:49:46.944Z,29.00
2023-04-09T12:54:49.096Z,26.90
2023-04-09T13:00:18.646Z,26.70
2023-04-09T13:05:21.785Z,22.80
2023-04-09T13:10:29.723Z,20.80
2023-04-09T13:15:31.736Z,17.50
2023-04-09T13:20:33.771Z,18.80
2023-04-09T13:25:35.728Z,20.10
2023-04-09T13:30:37.825Z,19.20
2023-04-09T13:35:40.937Z,19.60
2023-04-09T13:40:43.954Z,17.80
2023-04-09T13:45:46.308Z,17.80
2023-04-09T13:50:48.560Z,17.70
2023-04-09T13:55:50.692Z,20.60
2023-04-09T14:00:53.246Z,19.10
2023-04-09T14:05:55.241Z,19.60
2023-04-09T14:10:57.603Z,17.40
2023-04-09T14:16:00.494Z,17.50
2023-04-09T14:21:03.356Z,17.60
2023-04-09T14:26:06.603Z,16.20
2023-04-09T14:31:08.838Z,16.10
2023-04-09T14:36:11.530Z,15.50
2023-04-09T14:41:14.980Z,15.60
2023-04-09T14:46:17.232Z,17.00
2023-04-09T14:51:19.431Z,17.50
2023-04-09T14:56:21.266Z,17.20
2023-04-09T15:01:24.474Z,11.80
2023-04-09T15:06:28.014Z,13.00
2023-04-09T15:11:30.262Z,12.80
2023-04-09T15:16:37.520Z,15.70
2023-04-09T15:21:39.802Z,12.30
2023-04-09T15:26:41.828Z,12.80
2023-04-09T15:31:44.190Z,15.40
2023-04-09T15:36:46.350Z,15.50
2023-04-09T15:41:48.443Z,18.10
2023-04-09T15:46:51.067Z,19.60
2023-04-09T15:51:53.784Z,18.80
2023-04-09T15:56:55.808Z,17.50
2023-04-09T16:01:58.770Z,16.90
2023-04-09T16:07:02.480Z,15.80
2023-04-09T16:12:05.098Z,13.00
2023-04-09T16:17:07.258Z,13.00
2023-04-09T16:22:10.134Z,12.10
2023-04-09T16:27:13.955Z,13.30
2023-04-09T16:32:16.732Z,15.60
2023-04-09T16:37:20.441Z,16.90
2023-04-09T16:42:22.862Z,18.50
2023-04-09T16:47:25.734Z,20.70
2023-04-09T16:52:30.921Z,21.40
2023-04-09T16:57:32.903Z,22.10
2023-04-09T17:02:37.237Z,22.60
2023-04-09T17:07:39.388Z,24.10
2023-04-09T17:12:42.302Z,26.40
2023-04-09T17:17:45.740Z,26.90
2023-04-09T17:22:48.432Z,29.60
2023-04-09T17:27:50.280Z,32.80
2023-04-09T17:32:52.403Z,31.90
2023-04-09T17:37:55.380Z,33.10
2023-04-09T17:42:58.981Z,32.80
2023-04-09T17:48:00.796Z,33.60
2023-04-09T17:53:02.956Z,34.90
2023-04-09T17:58:04.953Z,34.00
2023-04-09T18:03:07.254Z,33.40
2023-04-09T18:08:09.381Z,37.10
2023-04-09T18:13:11.497Z,34.70
2023-04-09T18:18:13.852Z,35.50
2023-04-09T18:23:16.003Z,35.60
2023-04-09T18:28:18.296Z,36.00
2023-04-09T18:33:20.921Z,36.10
2023-04-09T18:38:23.145Z,33.50
2023-04-09T18:43:26.181Z,37.40
2023-04-09T18:48:28.101Z,35.80
2023-04-09T18:53:31.524Z,37.50
2023-04-09T18:58:34.000Z,36.60
2023-04-09T19:03:36.851Z,36.40
2023-04-09T19:08:39.244Z,38.10
2023-04-09T19:13:41.355Z,37.00
2023-04-09T19:18:43.684Z,38.10
2023-04-09T19:23:48.815Z,38.30
2023-04-09T19:28:50.994Z,36.20
2023-04-09T19:33:53.190Z,36.50
2023-04-09T19:38:56.102Z,37.40
2023-04-09T19:43:58.867Z,35.40
2023-04-09T19:49:01.068Z,36.70
2023-04-09T19:54:03.661Z,36.00
2023-04-09T19:59:05.865Z,40.90
2023-04-09T20:04:09.532Z,37.40
2023-04-09T20:09:14.367Z,37.70
2023-04-09T20:14:16.456Z,38.20
2023-04-09T20:19:19.950Z,36.60
2023-04-09T20:24:25.264Z,36.40
2023-04-09T20:29:27.199Z,37.20
2023-04-09T20:34:29.329Z,37.80
2023-04-09T20:39:32.070Z,38.20
2023-04-09T20:44:34.105Z,36.30
2023-04-09T20:49:36.251Z,39.20
2023-04-09T20:54:39.343Z,41.10
2023-04-09T20:59:41.308Z,39.30
2023-04-09T21:04:43.567Z,39.50
2023-04-09T21:09:47.301Z,39.00
2023-04-09T21:14:54.456Z,39.40
2023-04-09T21:19:56.764Z,40.40
2023-04-09T21:24:58.808Z,41.80
2023-04-09T21:30:00.792Z,41.90
2023-04-09T21:35:03.271Z,41.00
2023-04-09T21:40:06.506Z,41.40
2023-04-09T21:45:10.452Z,41.90
2023-04-09T21:50:13.851Z,41.40
2023-04-09T21:55:22.047Z,41.40
2023-04-09T22:00:24.181Z,41.40
2023-04-09T22:05:26.468Z,41.90
2023-04-09T22:10:28.437Z,43.00
2023-04-09T22:15:30.479Z,41.80
2023-04-09T22:20:32.486Z,41.40
2023-04-09T22:25:35.409Z,43.50
2023-04-09T22:30:37.287Z,42.80
2023-04-09T22:35:39.369Z,42.70
2023-04-09T22:40:41.988Z,40.80
2023-04-09T22:45:52.879Z,41.40
2023-04-09T22:50:55.009Z,43.60
2023-04-09T22:55:58.982Z,42.60
2023-04-09T23:01:02.079Z,39.40
2023-04-09T23:06:04.465Z,42.50
2023-04-09T23:11:07.298Z,43.20
2023-04-09T23:16:10.539Z,42.90
2023-04-09T23:21:13.046Z,42.60
2023-04-09T23:26:15.111Z,42.90
2023-04-09T23:31:17.028Z,44.10
2023-04-09T23:36:19.623Z,43.60
2023-04-09T23:41:23.140Z,42.70
2023-04-09T23:46:26.586Z,44.50
2023-04-09T23:51:29.865Z,44.70
2023-04-09T23:56:31.823Z,41.30
